Hauptseite
METAR-TAF:

METAR-TAF

Flughäfen :

Flughafen Moskau-Scheremetjewo

Moskau-Scheremetjewo, Russland

Breite: 55-58N, Länge: 037-25E, Höhe: 190 m

Beobachtung

Neuester Wetterbericht von vor 23 Minuten, um 08:30 UTC
Wind 6 kt aus Nordost
Temperatur 19°C
Luftfeuchtigkeit 56%
Luftdruck 1024 hPa
Sichtweite 10 km oder mehr
keine Wolken unter 1500 m und keine Kumulonimbus oder Gewitterwolken

METAR: UUEE 170830Z 04003MPS CAVOK 19/10 Q1024 R06C/CLRD62 R06R/CLRD62 NOSIG

Zeit: 11:53 (08:53 UTC)

Prognose

Neuester Wetterbericht von vor 53 Minuten, um 08:00 UTC
Gültige Prognose vom 17 um 09 UTC bis 18 um 09 UTC
Wind 6 kt aus Ost/Nordost
Sichtweite 10 km oder mehr
keine Wolken unter 1500 m und keine Kumulonimbus oder Gewitterwolken

TAF: UUEE 170800Z 1709/1809 06003MPS CAVOK TX23/1712Z TN12/1802Z

Wetterbeobachtungen und Prognosen von mehr als 4000 Flughäfen (METAR und TAF Bericht).

Die verfügbaren Stationen werden durch gelbe und rote Markierungen auf der Karte dargestellt.

Führen Sie die Maus auf sie, um den Namen der Station zu sehen.

Darauf klicken, um die Beobachtung von Wetterbeobachtungen und Prognosen zu sehen.

Um die Karte zu ändern : klicken Sie auf den grünen Tasten mit einem schwarzen Kreuz Zum Vergrößern, auf den grünen Button mit einem Gedankenstrich zu verkleinern, oder auf die grünen Pfeile für benachbarte Karten.


METAR-TAF: